createdAt,value
2022-08-29T00:04:37.060Z,0
2022-08-29T00:09:36.966Z,0
2022-08-29T00:14:36.959Z,0
2022-08-29T00:19:36.942Z,0
2022-08-29T00:24:36.949Z,0
2022-08-29T00:29:36.949Z,0
2022-08-29T00:34:39.459Z,0
2022-08-29T00:39:36.898Z,0
2022-08-29T00:44:36.965Z,0
2022-08-29T00:49:36.970Z,0
2022-08-29T00:54:36.950Z,0
2022-08-29T00:59:36.951Z,0
2022-08-29T01:04:36.926Z,0
2022-08-29T01:09:36.939Z,0
2022-08-29T01:14:38.525Z,0
2022-08-29T01:19:36.920Z,0
2022-08-29T01:24:36.952Z,0
2022-08-29T01:29:36.940Z,0
2022-08-29T01:34:36.910Z,0
2022-08-29T01:39:36.907Z,0
2022-08-29T01:44:36.936Z,0
2022-08-29T01:49:37.128Z,0
2022-08-29T01:54:36.931Z,0
2022-08-29T01:59:36.921Z,0
2022-08-29T02:04:36.874Z,0
2022-08-29T02:09:36.914Z,0
2022-08-29T02:14:36.884Z,0
2022-08-29T02:19:36.897Z,0
2022-08-29T02:24:36.918Z,0
2022-08-29T02:29:37.566Z,0
2022-08-29T02:34:36.925Z,0
2022-08-29T02:39:36.915Z,0
2022-08-29T02:44:36.897Z,0
2022-08-29T02:49:36.884Z,0
2022-08-29T02:54:36.888Z,0
2022-08-29T02:59:36.901Z,0
2022-08-29T03:04:36.872Z,0
2022-08-29T03:09:36.882Z,0
2022-08-29T03:14:36.858Z,0
2022-08-29T03:19:37.186Z,0
2022-08-29T03:24:36.880Z,0
2022-08-29T03:29:36.906Z,0
2022-08-29T03:34:36.894Z,0
2022-08-29T03:39:36.931Z,0
2022-08-29T03:44:36.896Z,0
2022-08-29T03:49:36.871Z,0
2022-08-29T03:54:36.865Z,0
2022-08-29T03:59:36.886Z,0
2022-08-29T04:04:36.874Z,0
2022-08-29T04:09:36.862Z,0
2022-08-29T04:14:36.885Z,0
2022-08-29T04:19:36.873Z,0
2022-08-29T04:24:36.853Z,0
2022-08-29T04:29:36.873Z,0
2022-08-29T04:34:36.852Z,2
2022-08-29T04:39:36.849Z,5
2022-08-29T04:44:36.851Z,5
2022-08-29T04:49:36.832Z,7
2022-08-29T04:54:36.844Z,5
2022-08-29T04:59:36.823Z,9
2022-08-29T05:04:36.829Z,5
2022-08-29T05:09:36.855Z,8
2022-08-29T05:14:36.868Z,15
2022-08-29T05:19:36.830Z,11
2022-08-29T05:24:36.843Z,15
2022-08-29T05:29:36.831Z,12
2022-08-29T05:34:36.809Z,10
2022-08-29T05:39:36.842Z,17
2022-08-29T05:44:36.830Z,15
2022-08-29T05:49:36.810Z,24
2022-08-29T05:54:36.802Z,38
2022-08-29T05:59:36.832Z,37
2022-08-29T06:04:36.810Z,37
2022-08-29T06:09:36.836Z,39
2022-08-29T06:14:36.835Z,30
2022-08-29T06:19:36.791Z,27
2022-08-29T06:24:36.833Z,38
2022-08-29T06:29:41.692Z,42
2022-08-29T06:34:36.816Z,45
2022-08-29T06:39:36.799Z,63
2022-08-29T06:44:37.763Z,102
2022-08-29T06:49:36.803Z,133
2022-08-29T06:54:36.821Z,167
2022-08-29T06:59:36.778Z,202
2022-08-29T07:04:36.806Z,175
2022-08-29T07:09:36.804Z,140
2022-08-29T07:14:36.765Z,150
2022-08-29T07:19:36.796Z,198
2022-08-29T07:24:36.787Z,235
2022-08-29T07:29:36.766Z,260
2022-08-29T07:34:36.786Z,198
2022-08-29T07:39:36.786Z,245
2022-08-29T07:44:36.748Z,250
2022-08-29T07:49:41.244Z,253
2022-08-29T07:54:36.780Z,338
2022-08-29T07:59:36.789Z,293
2022-08-29T08:04:36.773Z,212
2022-08-29T08:09:36.779Z,206
2022-08-29T08:14:36.787Z,253
2022-08-29T08:19:36.764Z,244
2022-08-29T08:24:36.771Z,246
2022-08-29T08:29:36.890Z,192
2022-08-29T08:34:36.847Z,205
2022-08-29T08:39:37.446Z,214
2022-08-29T08:44:37.467Z,230
2022-08-29T08:49:37.469Z,304
2022-08-29T08:54:37.440Z,339
2022-08-29T08:59:37.477Z,345
2022-08-29T09:04:37.445Z,435
2022-08-29T09:09:37.422Z,659
2022-08-29T09:14:37.452Z,813
2022-08-29T09:19:37.419Z,514
2022-08-29T09:24:37.427Z,584
2022-08-29T09:29:37.422Z,485
2022-08-29T09:34:57.338Z,336
2022-08-29T09:39:37.403Z,534
2022-08-29T09:44:37.458Z,464
2022-08-29T09:49:37.458Z,380
2022-08-29T09:54:37.486Z,278
2022-08-29T09:59:37.422Z,293
2022-08-29T10:04:37.452Z,708
2022-08-29T10:09:37.417Z,963
2022-08-29T10:14:37.548Z,713
2022-08-29T10:19:37.501Z,291
2022-08-29T10:24:37.518Z,253
2022-08-29T10:29:37.704Z,237
2022-08-29T10:34:37.735Z,197
2022-08-29T10:39:37.695Z,127
2022-08-29T10:44:38.048Z,125
2022-08-29T10:49:40.753Z,146
2022-08-29T10:54:37.999Z,224
2022-08-29T10:59:39.114Z,373
2022-08-29T11:04:39.138Z,574
2022-08-29T11:09:39.337Z,781
2022-08-29T11:14:39.324Z,774
2022-08-29T11:19:39.306Z,558
2022-08-29T11:24:42.033Z,609
2022-08-29T11:29:40.124Z,694
2022-08-29T11:34:40.135Z,451
2022-08-29T11:39:40.158Z,566
2022-08-29T11:44:41.102Z,294
2022-08-29T11:49:41.041Z,377
2022-08-29T11:54:42.933Z,483
2022-08-29T11:59:42.965Z,641
2022-08-29T12:04:43.040Z,518
2022-08-29T12:09:42.883Z,932
2022-08-29T12:14:42.870Z,677
2022-08-29T12:19:42.884Z,965
2022-08-29T12:24:42.860Z,851
2022-08-29T12:29:44.499Z,839
2022-08-29T12:34:42.885Z,653
2022-08-29T12:39:42.878Z,621
2022-08-29T12:44:42.911Z,340
2022-08-29T12:49:42.885Z,290
2022-08-29T12:54:43.583Z,273
2022-08-29T12:59:42.891Z,354
2022-08-29T13:04:42.869Z,389
2022-08-29T13:09:42.870Z,332
2022-08-29T13:14:42.853Z,426
2022-08-29T13:19:42.875Z,479
2022-08-29T13:24:42.889Z,380
2022-08-29T13:29:42.854Z,320
2022-08-29T13:34:42.868Z,458
2022-08-29T13:39:42.842Z,657
2022-08-29T13:44:42.873Z,515
2022-08-29T13:49:42.881Z,590
2022-08-29T13:54:42.872Z,480
2022-08-29T13:59:42.850Z,378
2022-08-29T14:04:43.002Z,428
2022-08-29T14:09:42.855Z,429
2022-08-29T14:14:42.870Z,289
2022-08-29T14:19:42.884Z,288
2022-08-29T14:24:42.845Z,275
2022-08-29T14:29:42.834Z,250
2022-08-29T14:34:44.800Z,318
2022-08-29T14:39:42.850Z,358
2022-08-29T14:44:42.852Z,292
2022-08-29T14:49:42.855Z,365
2022-08-29T14:54:42.857Z,352
2022-08-29T14:59:42.878Z,286
2022-08-29T15:04:42.873Z,395
2022-08-29T15:09:42.858Z,507
2022-08-29T15:14:42.864Z,511
2022-08-29T15:24:42.835Z,287
2022-08-29T15:29:42.821Z,173
2022-08-29T15:34:42.845Z,64
2022-08-29T15:39:42.865Z,98
2022-08-29T15:44:42.862Z,121
2022-08-29T15:49:42.862Z,172
2022-08-29T15:54:42.868Z,224
2022-08-29T15:59:57.407Z,244
2022-08-29T16:04:42.830Z,243
2022-08-29T16:09:42.822Z,227
2022-08-29T16:14:59.869Z,184
2022-08-29T16:19:42.860Z,139
2022-08-29T16:24:42.852Z,130
2022-08-29T16:29:42.839Z,135
2022-08-29T16:34:42.812Z,112
2022-08-29T16:39:42.862Z,110
2022-08-29T16:44:42.812Z,113
2022-08-29T16:49:42.819Z,111
2022-08-29T16:54:42.848Z,96
2022-08-29T16:59:42.845Z,80
2022-08-29T17:04:42.855Z,76
2022-08-29T17:09:42.869Z,71
2022-08-29T17:14:42.828Z,65
2022-08-29T17:19:42.822Z,54
2022-08-29T17:24:42.836Z,39
2022-08-29T17:29:42.853Z,33
2022-08-29T17:34:42.856Z,29
2022-08-29T17:39:42.809Z,40
2022-08-29T17:44:42.999Z,35
2022-08-29T17:49:42.804Z,15
2022-08-29T17:54:42.839Z,11
2022-08-29T17:59:42.812Z,17
2022-08-29T18:04:42.818Z,13
2022-08-29T18:09:42.838Z,11
2022-08-29T18:14:42.788Z,6
2022-08-29T18:19:42.805Z,0
2022-08-29T18:24:42.821Z,0
2022-08-29T18:29:42.837Z,0
2022-08-29T18:34:42.828Z,0
2022-08-29T18:39:42.820Z,0
2022-08-29T18:44:42.802Z,0
2022-08-29T18:49:42.821Z,0
2022-08-29T18:54:43.578Z,0
2022-08-29T18:59:43.585Z,0
2022-08-29T19:04:44.227Z,0
2022-08-29T19:09:44.240Z,0
2022-08-29T19:14:46.002Z,0
2022-08-29T19:19:44.209Z,0
2022-08-29T19:24:44.219Z,0
2022-08-29T19:29:44.206Z,0
2022-08-29T19:34:46.693Z,0
2022-08-29T19:39:44.206Z,0
2022-08-29T19:44:44.193Z,0
2022-08-29T19:49:44.821Z,0
2022-08-29T19:54:44.256Z,0
2022-08-29T19:59:44.179Z,0
2022-08-29T20:04:44.191Z,0
2022-08-29T20:09:44.188Z,0
2022-08-29T20:14:44.185Z,0
2022-08-29T20:19:44.208Z,0
2022-08-29T20:24:44.222Z,0
2022-08-29T20:29:44.255Z,0
2022-08-29T20:34:44.190Z,0
2022-08-29T20:39:44.168Z,0
2022-08-29T20:44:44.202Z,0
2022-08-29T20:49:44.205Z,0
2022-08-29T20:54:45.913Z,0
2022-08-29T20:59:44.178Z,0
2022-08-29T21:04:44.204Z,0
2022-08-29T21:09:44.202Z,0
2022-08-29T21:14:44.183Z,0
2022-08-29T21:19:44.161Z,0
2022-08-29T21:24:44.187Z,0
2022-08-29T21:29:44.163Z,0
2022-08-29T21:34:44.160Z,0
2022-08-29T21:39:44.186Z,0
2022-08-29T21:44:44.189Z,0
2022-08-29T21:49:44.171Z,0
2022-08-29T21:54:44.186Z,0
2022-08-29T21:59:44.190Z,0
2022-08-29T22:04:44.172Z,0
2022-08-29T22:09:44.151Z,0
2022-08-29T22:14:44.162Z,0
2022-08-29T22:19:44.193Z,0
2022-08-29T22:24:44.184Z,0
2022-08-29T22:29:44.168Z,0
2022-08-29T22:34:44.153Z,0
2022-08-29T22:39:44.164Z,0
2022-08-29T22:45:03.093Z,0
2022-08-29T22:49:44.167Z,0
2022-08-29T22:54:44.134Z,0
2022-08-29T22:59:44.139Z,0
2022-08-29T23:04:44.142Z,0
2022-08-29T23:09:44.145Z,0
2022-08-29T23:14:44.157Z,0
2022-08-29T23:19:44.175Z,0
2022-08-29T23:24:53.975Z,0
2022-08-29T23:29:44.115Z,0
2022-08-29T23:34:44.122Z,0
2022-08-29T23:39:44.148Z,0
2022-08-29T23:44:44.168Z,0
2022-08-29T23:49:44.135Z,0
2022-08-29T23:54:44.118Z,0
2022-08-29T23:59:44.109Z,0
